sensor_id;sensor_type;location;lat;lon;timestamp;P1;durP1;ratioP1;P2;durP2;ratioP2
9888;SDS011;4983;42.112;24.738;2024-03-08T00:01:30;28.92;;;14.93;;
9888;SDS011;4983;42.112;24.738;2024-03-08T00:03:56;28.73;;;14.70;;
9888;SDS011;4983;42.112;24.738;2024-03-08T00:06:21;29.60;;;15.88;;
9888;SDS011;4983;42.112;24.738;2024-03-08T00:08:47;37.10;;;15.65;;
9888;SDS011;4983;42.112;24.738;2024-03-08T00:11:12;31.90;;;14.45;;
9888;SDS011;4983;42.112;24.738;2024-03-08T00:13:38;33.92;;;15.73;;
9888;SDS011;4983;42.112;24.738;2024-03-08T00:16:04;30.77;;;16.08;;
9888;SDS011;4983;42.112;24.738;2024-03-08T00:18:29;32.25;;;14.98;;
9888;SDS011;4983;42.112;24.738;2024-03-08T00:20:55;32.95;;;15.20;;
9888;SDS011;4983;42.112;24.738;2024-03-08T00:23:21;28.73;;;15.23;;
9888;SDS011;4983;42.112;24.738;2024-03-08T00:25:46;29.70;;;14.88;;
9888;SDS011;4983;42.112;24.738;2024-03-08T00:28:12;34.45;;;15.38;;
9888;SDS011;4983;42.112;24.738;2024-03-08T00:30:40;28.50;;;14.20;;
9888;SDS011;4983;42.112;24.738;2024-03-08T00:33:05;29.58;;;15.27;;
9888;SDS011;4983;42.112;24.738;2024-03-08T00:35:31;29.05;;;14.63;;
9888;SDS011;4983;42.112;24.738;2024-03-08T00:37:56;35.70;;;15.40;;
9888;SDS011;4983;42.112;24.738;2024-03-08T00:40:22;33.63;;;16.38;;
9888;SDS011;4983;42.112;24.738;2024-03-08T00:42:47;31.95;;;16.00;;
9888;SDS011;4983;42.112;24.738;2024-03-08T00:45:13;33.50;;;16.20;;
9888;SDS011;4983;42.112;24.738;2024-03-08T00:47:38;33.95;;;16.13;;
9888;SDS011;4983;42.112;24.738;2024-03-08T00:50:04;31.05;;;15.95;;
9888;SDS011;4983;42.112;24.738;2024-03-08T00:52:30;26.95;;;14.45;;
9888;SDS011;4983;42.112;24.738;2024-03-08T00:54:55;32.13;;;16.13;;
9888;SDS011;4983;42.112;24.738;2024-03-08T00:57:21;30.55;;;15.05;;
9888;SDS011;4983;42.112;24.738;2024-03-08T00:59:47;28.80;;;15.23;;
9888;SDS011;4983;42.112;24.738;2024-03-08T01:02:13;30.80;;;14.95;;
9888;SDS011;4983;42.112;24.738;2024-03-08T01:04:39;29.98;;;14.57;;
9888;SDS011;4983;42.112;24.738;2024-03-08T01:07:04;32.38;;;15.52;;
9888;SDS011;4983;42.112;24.738;2024-03-08T01:09:30;32.67;;;15.02;;
9888;SDS011;4983;42.112;24.738;2024-03-08T01:11:56;31.15;;;16.15;;
9888;SDS011;4983;42.112;24.738;2024-03-08T01:14:22;31.77;;;17.05;;
9888;SDS011;4983;42.112;24.738;2024-03-08T01:16:49;31.70;;;15.57;;
9888;SDS011;4983;42.112;24.738;2024-03-08T01:19:15;32.45;;;15.05;;
9888;SDS011;4983;42.112;24.738;2024-03-08T01:21:40;31.60;;;15.27;;
9888;SDS011;4983;42.112;24.738;2024-03-08T01:24:06;33.75;;;15.38;;
9888;SDS011;4983;42.112;24.738;2024-03-08T01:26:32;34.03;;;15.82;;
9888;SDS011;4983;42.112;24.738;2024-03-08T01:28:59;29.80;;;15.55;;
9888;SDS011;4983;42.112;24.738;2024-03-08T01:31:25;34.15;;;15.38;;
9888;SDS011;4983;42.112;24.738;2024-03-08T01:33:50;34.90;;;16.15;;
9888;SDS011;4983;42.112;24.738;2024-03-08T01:36:16;35.65;;;17.70;;
9888;SDS011;4983;42.112;24.738;2024-03-08T01:38:44;32.03;;;15.88;;
9888;SDS011;4983;42.112;24.738;2024-03-08T01:41:10;35.85;;;16.92;;
9888;SDS011;4983;42.112;24.738;2024-03-08T01:43:35;31.55;;;15.50;;
9888;SDS011;4983;42.112;24.738;2024-03-08T01:46:01;27.52;;;14.93;;
9888;SDS011;4983;42.112;24.738;2024-03-08T01:48:30;34.13;;;15.27;;
9888;SDS011;4983;42.112;24.738;2024-03-08T01:50:56;32.90;;;15.50;;
9888;SDS011;4983;42.112;24.738;2024-03-08T01:53:23;35.03;;;16.02;;
9888;SDS011;4983;42.112;24.738;2024-03-08T01:55:50;35.03;;;15.75;;
9888;SDS011;4983;42.112;24.738;2024-03-08T01:58:19;32.67;;;16.33;;
9888;SDS011;4983;42.112;24.738;2024-03-08T02:00:47;33.63;;;15.25;;
9888;SDS011;4983;42.112;24.738;2024-03-08T02:03:16;32.10;;;15.48;;
9888;SDS011;4983;42.112;24.738;2024-03-08T02:05:42;37.42;;;15.80;;
9888;SDS011;4983;42.112;24.738;2024-03-08T02:08:11;31.08;;;15.23;;
9888;SDS011;4983;42.112;24.738;2024-03-08T02:10:45;28.85;;;13.52;;
9888;SDS011;4983;42.112;24.738;2024-03-08T02:13:11;33.00;;;16.35;;
9888;SDS011;4983;42.112;24.738;2024-03-08T02:15:50;37.35;;;14.30;;
9888;SDS011;4983;42.112;24.738;2024-03-08T02:18:19;31.00;;;14.73;;
9888;SDS011;4983;42.112;24.738;2024-03-08T02:20:55;37.10;;;15.77;;
9888;SDS011;4983;42.112;24.738;2024-03-08T02:23:22;33.22;;;15.32;;
9888;SDS011;4983;42.112;24.738;2024-03-08T02:25:47;36.70;;;16.63;;
9888;SDS011;4983;42.112;24.738;2024-03-08T02:28:13;35.42;;;15.75;;
9888;SDS011;4983;42.112;24.738;2024-03-08T02:30:39;35.95;;;16.95;;
9888;SDS011;4983;42.112;24.738;2024-03-08T02:33:05;36.25;;;15.93;;
9888;SDS011;4983;42.112;24.738;2024-03-08T02:35:31;35.25;;;16.35;;
9888;SDS011;4983;42.112;24.738;2024-03-08T02:37:58;30.27;;;14.30;;
9888;SDS011;4983;42.112;24.738;2024-03-08T02:40:24;31.67;;;14.27;;
9888;SDS011;4983;42.112;24.738;2024-03-08T02:42:49;30.48;;;13.02;;
9888;SDS011;4983;42.112;24.738;2024-03-08T02:45:15;28.42;;;13.80;;
9888;SDS011;4983;42.112;24.738;2024-03-08T02:47:40;25.25;;;12.70;;
9888;SDS011;4983;42.112;24.738;2024-03-08T02:50:06;22.52;;;12.60;;
9888;SDS011;4983;42.112;24.738;2024-03-08T02:52:35;27.73;;;13.68;;
9888;SDS011;4983;42.112;24.738;2024-03-08T02:55:01;27.27;;;12.90;;
9888;SDS011;4983;42.112;24.738;2024-03-08T02:57:27;27.20;;;13.77;;
9888;SDS011;4983;42.112;24.738;2024-03-08T02:59:55;26.80;;;13.23;;
9888;SDS011;4983;42.112;24.738;2024-03-08T03:02:21;30.88;;;13.85;;
9888;SDS011;4983;42.112;24.738;2024-03-08T03:04:48;30.77;;;15.13;;
9888;SDS011;4983;42.112;24.738;2024-03-08T03:07:13;27.67;;;13.40;;
9888;SDS011;4983;42.112;24.738;2024-03-08T03:09:39;27.00;;;15.15;;
9888;SDS011;4983;42.112;24.738;2024-03-08T03:12:05;27.98;;;14.63;;
9888;SDS011;4983;42.112;24.738;2024-03-08T03:14:35;25.00;;;14.65;;
9888;SDS011;4983;42.112;24.738;2024-03-08T03:17:03;29.52;;;15.20;;
9888;SDS011;4983;42.112;24.738;2024-03-08T03:19:29;26.73;;;14.48;;
9888;SDS011;4983;42.112;24.738;2024-03-08T03:21:55;33.70;;;15.70;;
9888;SDS011;4983;42.112;24.738;2024-03-08T03:24:21;37.25;;;14.73;;
9888;SDS011;4983;42.112;24.738;2024-03-08T03:26:46;32.05;;;14.95;;
9888;SDS011;4983;42.112;24.738;2024-03-08T03:29:13;29.23;;;14.80;;
9888;SDS011;4983;42.112;24.738;2024-03-08T03:31:40;29.20;;;14.57;;
9888;SDS011;4983;42.112;24.738;2024-03-08T03:34:06;28.88;;;12.98;;
9888;SDS011;4983;42.112;24.738;2024-03-08T03:36:33;27.70;;;14.40;;
9888;SDS011;4983;42.112;24.738;2024-03-08T03:39:00;25.83;;;13.40;;
9888;SDS011;4983;42.112;24.738;2024-03-08T03:41:41;27.13;;;13.20;;
9888;SDS011;4983;42.112;24.738;2024-03-08T03:44:07;30.83;;;14.05;;
9888;SDS011;4983;42.112;24.738;2024-03-08T03:46:33;26.15;;;13.50;;
9888;SDS011;4983;42.112;24.738;2024-03-08T03:48:59;30.50;;;15.13;;
9888;SDS011;4983;42.112;24.738;2024-03-08T03:51:24;32.05;;;15.75;;
9888;SDS011;4983;42.112;24.738;2024-03-08T03:53:51;34.47;;;17.58;;
9888;SDS011;4983;42.112;24.738;2024-03-08T03:56:16;39.08;;;18.30;;
9888;SDS011;4983;42.112;24.738;2024-03-08T03:58:42;34.60;;;18.13;;
9888;SDS011;4983;42.112;24.738;2024-03-08T04:01:07;34.95;;;17.05;;
9888;SDS011;4983;42.112;24.738;2024-03-08T04:03:34;26.83;;;14.68;;
9888;SDS011;4983;42.112;24.738;2024-03-08T04:06:00;33.70;;;15.73;;
9888;SDS011;4983;42.112;24.738;2024-03-08T04:08:27;28.23;;;13.98;;
9888;SDS011;4983;42.112;24.738;2024-03-08T04:10:52;35.92;;;13.73;;
9888;SDS011;4983;42.112;24.738;2024-03-08T04:13:18;31.02;;;13.82;;
9888;SDS011;4983;42.112;24.738;2024-03-08T04:15:45;32.88;;;14.48;;
9888;SDS011;4983;42.112;24.738;2024-03-08T04:18:13;34.83;;;15.25;;
9888;SDS011;4983;42.112;24.738;2024-03-08T04:20:38;32.30;;;15.27;;
9888;SDS011;4983;42.112;24.738;2024-03-08T04:23:05;28.63;;;13.82;;
9888;SDS011;4983;42.112;24.738;2024-03-08T04:25:31;34.97;;;16.85;;
9888;SDS011;4983;42.112;24.738;2024-03-08T04:27:56;31.10;;;13.85;;
9888;SDS011;4983;42.112;24.738;2024-03-08T04:30:21;32.60;;;14.00;;
9888;SDS011;4983;42.112;24.738;2024-03-08T04:32:47;34.20;;;15.07;;
9888;SDS011;4983;42.112;24.738;2024-03-08T04:35:13;28.23;;;13.80;;
9888;SDS011;4983;42.112;24.738;2024-03-08T04:37:39;37.78;;;15.55;;
9888;SDS011;4983;42.112;24.738;2024-03-08T04:40:05;32.67;;;15.10;;
9888;SDS011;4983;42.112;24.738;2024-03-08T04:42:31;28.88;;;13.50;;
9888;SDS011;4983;42.112;24.738;2024-03-08T04:45:00;28.55;;;13.70;;
9888;SDS011;4983;42.112;24.738;2024-03-08T04:47:25;34.47;;;14.88;;
9888;SDS011;4983;42.112;24.738;2024-03-08T04:49:51;35.70;;;15.88;;
9888;SDS011;4983;42.112;24.738;2024-03-08T04:52:16;37.88;;;15.48;;
9888;SDS011;4983;42.112;24.738;2024-03-08T04:54:42;36.38;;;15.60;;
9888;SDS011;4983;42.112;24.738;2024-03-08T04:57:08;31.90;;;14.23;;
9888;SDS011;4983;42.112;24.738;2024-03-08T04:59:33;34.30;;;13.98;;
9888;SDS011;4983;42.112;24.738;2024-03-08T05:01:59;31.58;;;13.73;;
9888;SDS011;4983;42.112;24.738;2024-03-08T05:04:24;33.38;;;13.88;;
9888;SDS011;4983;42.112;24.738;2024-03-08T05:06:50;30.70;;;13.35;;
9888;SDS011;4983;42.112;24.738;2024-03-08T05:09:15;31.80;;;15.90;;
9888;SDS011;4983;42.112;24.738;2024-03-08T05:11:44;30.85;;;13.80;;
9888;SDS011;4983;42.112;24.738;2024-03-08T05:14:11;33.22;;;14.68;;
9888;SDS011;4983;42.112;24.738;2024-03-08T05:16:41;33.15;;;13.00;;
9888;SDS011;4983;42.112;24.738;2024-03-08T05:19:08;31.83;;;14.88;;
9888;SDS011;4983;42.112;24.738;2024-03-08T05:21:33;34.45;;;14.52;;
9888;SDS011;4983;42.112;24.738;2024-03-08T05:23:58;28.65;;;14.27;;
9888;SDS011;4983;42.112;24.738;2024-03-08T05:26:24;31.27;;;15.32;;
9888;SDS011;4983;42.112;24.738;2024-03-08T05:28:49;36.80;;;15.98;;
9888;SDS011;4983;42.112;24.738;2024-03-08T05:31:19;39.65;;;17.63;;
9888;SDS011;4983;42.112;24.738;2024-03-08T05:33:48;35.17;;;15.23;;
9888;SDS011;4983;42.112;24.738;2024-03-08T05:36:14;31.63;;;15.75;;
9888;SDS011;4983;42.112;24.738;2024-03-08T05:38:41;31.42;;;15.40;;
9888;SDS011;4983;42.112;24.738;2024-03-08T05:41:08;28.23;;;14.52;;
9888;SDS011;4983;42.112;24.738;2024-03-08T05:43:34;32.40;;;14.57;;
9888;SDS011;4983;42.112;24.738;2024-03-08T05:46:00;35.00;;;15.32;;
9888;SDS011;4983;42.112;24.738;2024-03-08T05:48:25;32.50;;;15.40;;
9888;SDS011;4983;42.112;24.738;2024-03-08T05:50:51;36.47;;;15.68;;
9888;SDS011;4983;42.112;24.738;2024-03-08T05:53:16;33.05;;;15.32;;
9888;SDS011;4983;42.112;24.738;2024-03-08T05:55:42;31.67;;;14.60;;
9888;SDS011;4983;42.112;24.738;2024-03-08T05:58:07;36.42;;;15.57;;
9888;SDS011;4983;42.112;24.738;2024-03-08T06:00:33;32.88;;;13.98;;
9888;SDS011;4983;42.112;24.738;2024-03-08T06:03:01;34.10;;;14.25;;
9888;SDS011;4983;42.112;24.738;2024-03-08T06:05:27;31.90;;;16.30;;
9888;SDS011;4983;42.112;24.738;2024-03-08T06:07:53;33.33;;;15.70;;
9888;SDS011;4983;42.112;24.738;2024-03-08T06:10:18;35.95;;;14.73;;
9888;SDS011;4983;42.112;24.738;2024-03-08T06:12:44;33.38;;;16.33;;
9888;SDS011;4983;42.112;24.738;2024-03-08T06:15:10;36.28;;;16.15;;
9888;SDS011;4983;42.112;24.738;2024-03-08T06:17:39;42.65;;;19.75;;
9888;SDS011;4983;42.112;24.738;2024-03-08T06:20:06;43.88;;;18.38;;
9888;SDS011;4983;42.112;24.738;2024-03-08T06:22:37;37.53;;;17.75;;
9888;SDS011;4983;42.112;24.738;2024-03-08T06:25:06;38.88;;;18.73;;
9888;SDS011;4983;42.112;24.738;2024-03-08T06:27:32;44.13;;;21.65;;
9888;SDS011;4983;42.112;24.738;2024-03-08T06:29:59;49.35;;;24.27;;
9888;SDS011;4983;42.112;24.738;2024-03-08T06:32:25;41.85;;;19.67;;
9888;SDS011;4983;42.112;24.738;2024-03-08T06:34:50;44.78;;;21.40;;
9888;SDS011;4983;42.112;24.738;2024-03-08T06:37:16;52.17;;;23.65;;
9888;SDS011;4983;42.112;24.738;2024-03-08T06:39:47;46.72;;;20.92;;
9888;SDS011;4983;42.112;24.738;2024-03-08T06:42:13;35.80;;;16.98;;
9888;SDS011;4983;42.112;24.738;2024-03-08T06:44:39;35.97;;;17.25;;
9888;SDS011;4983;42.112;24.738;2024-03-08T06:47:13;39.00;;;17.92;;
9888;SDS011;4983;42.112;24.738;2024-03-08T06:49:40;35.42;;;15.52;;
9888;SDS011;4983;42.112;24.738;2024-03-08T06:52:06;32.97;;;15.60;;
9888;SDS011;4983;42.112;24.738;2024-03-08T06:54:34;32.80;;;14.90;;
9888;SDS011;4983;42.112;24.738;2024-03-08T06:57:01;44.05;;;16.65;;
9888;SDS011;4983;42.112;24.738;2024-03-08T06:59:28;34.17;;;16.80;;
9888;SDS011;4983;42.112;24.738;2024-03-08T07:01:54;31.45;;;14.35;;
9888;SDS011;4983;42.112;24.738;2024-03-08T07:04:19;35.70;;;16.92;;
9888;SDS011;4983;42.112;24.738;2024-03-08T07:06:46;33.60;;;15.02;;
9888;SDS011;4983;42.112;24.738;2024-03-08T07:09:15;30.98;;;15.68;;
9888;SDS011;4983;42.112;24.738;2024-03-08T07:11:44;28.73;;;12.93;;
9888;SDS011;4983;42.112;24.738;2024-03-08T07:14:09;33.33;;;14.63;;
9888;SDS011;4983;42.112;24.738;2024-03-08T07:16:34;26.98;;;13.90;;
9888;SDS011;4983;42.112;24.738;2024-03-08T07:19:06;31.77;;;14.88;;
9888;SDS011;4983;42.112;24.738;2024-03-08T07:21:32;34.08;;;15.40;;
9888;SDS011;4983;42.112;24.738;2024-03-08T07:23:57;35.05;;;14.98;;
9888;SDS011;4983;42.112;24.738;2024-03-08T07:26:34;32.65;;;15.18;;
9888;SDS011;4983;42.112;24.738;2024-03-08T07:29:00;31.00;;;14.98;;
9888;SDS011;4983;42.112;24.738;2024-03-08T07:31:26;33.13;;;14.52;;
9888;SDS011;4983;42.112;24.738;2024-03-08T07:33:51;31.95;;;13.32;;
9888;SDS011;4983;42.112;24.738;2024-03-08T07:36:18;39.83;;;16.50;;
9888;SDS011;4983;42.112;24.738;2024-03-08T07:38:44;29.52;;;14.90;;
9888;SDS011;4983;42.112;24.738;2024-03-08T07:41:12;35.42;;;16.17;;
9888;SDS011;4983;42.112;24.738;2024-03-08T07:43:38;35.40;;;16.20;;
9888;SDS011;4983;42.112;24.738;2024-03-08T07:46:03;35.03;;;16.98;;
9888;SDS011;4983;42.112;24.738;2024-03-08T07:48:29;31.02;;;14.70;;
9888;SDS011;4983;42.112;24.738;2024-03-08T07:50:55;40.20;;;15.73;;
9888;SDS011;4983;42.112;24.738;2024-03-08T07:53:21;35.75;;;15.85;;
9888;SDS011;4983;42.112;24.738;2024-03-08T07:55:49;29.92;;;14.27;;
9888;SDS011;4983;42.112;24.738;2024-03-08T07:58:15;35.35;;;15.63;;
9888;SDS011;4983;42.112;24.738;2024-03-08T08:00:40;31.80;;;15.07;;
9888;SDS011;4983;42.112;24.738;2024-03-08T08:03:08;34.00;;;16.65;;
9888;SDS011;4983;42.112;24.738;2024-03-08T08:05:33;28.25;;;13.57;;
9888;SDS011;4983;42.112;24.738;2024-03-08T08:08:01;34.72;;;14.80;;
9888;SDS011;4983;42.112;24.738;2024-03-08T08:10:29;25.95;;;12.88;;
9888;SDS011;4983;42.112;24.738;2024-03-08T08:12:54;34.85;;;15.50;;
9888;SDS011;4983;42.112;24.738;2024-03-08T08:15:22;39.42;;;16.42;;
9888;SDS011;4983;42.112;24.738;2024-03-08T08:17:47;34.97;;;14.80;;
9888;SDS011;4983;42.112;24.738;2024-03-08T08:20:13;31.60;;;14.75;;
9888;SDS011;4983;42.112;24.738;2024-03-08T08:22:42;36.22;;;15.75;;
9888;SDS011;4983;42.112;24.738;2024-03-08T08:25:08;35.45;;;15.27;;
9888;SDS011;4983;42.112;24.738;2024-03-08T08:27:38;29.20;;;14.43;;
9888;SDS011;4983;42.112;24.738;2024-03-08T08:30:05;34.50;;;15.07;;
9888;SDS011;4983;42.112;24.738;2024-03-08T08:32:33;35.55;;;16.52;;
9888;SDS011;4983;42.112;24.738;2024-03-08T08:35:00;33.75;;;14.90;;
9888;SDS011;4983;42.112;24.738;2024-03-08T08:37:26;32.22;;;15.20;;
9888;SDS011;4983;42.112;24.738;2024-03-08T08:39:51;34.30;;;15.55;;
9888;SDS011;4983;42.112;24.738;2024-03-08T08:42:17;26.23;;;13.27;;
9888;SDS011;4983;42.112;24.738;2024-03-08T08:44:43;31.50;;;14.80;;
9888;SDS011;4983;42.112;24.738;2024-03-08T08:47:08;32.63;;;14.73;;
9888;SDS011;4983;42.112;24.738;2024-03-08T08:49:34;32.92;;;15.63;;
9888;SDS011;4983;42.112;24.738;2024-03-08T08:52:00;28.33;;;13.98;;
9888;SDS011;4983;42.112;24.738;2024-03-08T08:54:26;29.30;;;14.23;;
9888;SDS011;4983;42.112;24.738;2024-03-08T08:56:52;27.30;;;12.57;;
9888;SDS011;4983;42.112;24.738;2024-03-08T08:59:18;26.13;;;12.52;;
9888;SDS011;4983;42.112;24.738;2024-03-08T09:01:47;28.13;;;13.05;;
9888;SDS011;4983;42.112;24.738;2024-03-08T09:04:12;26.50;;;11.98;;
9888;SDS011;4983;42.112;24.738;2024-03-08T09:06:38;33.10;;;14.48;;
9888;SDS011;4983;42.112;24.738;2024-03-08T09:09:06;29.08;;;12.85;;
9888;SDS011;4983;42.112;24.738;2024-03-08T09:11:34;24.10;;;12.18;;
9888;SDS011;4983;42.112;24.738;2024-03-08T09:14:00;25.73;;;13.10;;
9888;SDS011;4983;42.112;24.738;2024-03-08T09:16:27;26.40;;;12.70;;
9888;SDS011;4983;42.112;24.738;2024-03-08T09:18:52;21.23;;;10.40;;
9888;SDS011;4983;42.112;24.738;2024-03-08T09:21:18;23.55;;;12.32;;
9888;SDS011;4983;42.112;24.738;2024-03-08T09:23:43;24.30;;;12.35;;
9888;SDS011;4983;42.112;24.738;2024-03-08T09:26:10;26.00;;;11.23;;
9888;SDS011;4983;42.112;24.738;2024-03-08T09:28:38;22.10;;;13.32;;
9888;SDS011;4983;42.112;24.738;2024-03-08T09:31:03;23.15;;;12.55;;
9888;SDS011;4983;42.112;24.738;2024-03-08T09:33:30;26.70;;;11.43;;
9888;SDS011;4983;42.112;24.738;2024-03-08T09:35:56;25.80;;;13.15;;
9888;SDS011;4983;42.112;24.738;2024-03-08T09:38:24;20.80;;;11.07;;
9888;SDS011;4983;42.112;24.738;2024-03-08T09:40:50;25.05;;;11.68;;
9888;SDS011;4983;42.112;24.738;2024-03-08T09:43:16;18.85;;;11.65;;
9888;SDS011;4983;42.112;24.738;2024-03-08T09:45:43;18.60;;;10.75;;
9888;SDS011;4983;42.112;24.738;2024-03-08T09:48:14;20.73;;;11.00;;
9888;SDS011;4983;42.112;24.738;2024-03-08T09:50:44;22.58;;;11.30;;
9888;SDS011;4983;42.112;24.738;2024-03-08T09:53:10;21.20;;;11.30;;
9888;SDS011;4983;42.112;24.738;2024-03-08T09:55:37;23.52;;;10.68;;
9888;SDS011;4983;42.112;24.738;2024-03-08T09:58:06;25.77;;;12.07;;
9888;SDS011;4983;42.112;24.738;2024-03-08T10:00:55;20.33;;;10.55;;
9888;SDS011;4983;42.112;24.738;2024-03-08T10:03:26;21.27;;;10.75;;
9888;SDS011;4983;42.112;24.738;2024-03-08T10:05:52;19.95;;;10.18;;
9888;SDS011;4983;42.112;24.738;2024-03-08T10:08:21;19.23;;;10.60;;
9888;SDS011;4983;42.112;24.738;2024-03-08T10:10:47;21.65;;;10.35;;
9888;SDS011;4983;42.112;24.738;2024-03-08T10:13:14;15.48;;;8.88;;
9888;SDS011;4983;42.112;24.738;2024-03-08T10:15:41;16.30;;;10.10;;
9888;SDS011;4983;42.112;24.738;2024-03-08T10:18:07;17.63;;;9.60;;
9888;SDS011;4983;42.112;24.738;2024-03-08T10:20:33;14.07;;;8.73;;
9888;SDS011;4983;42.112;24.738;2024-03-08T10:22:59;15.00;;;9.52;;
9888;SDS011;4983;42.112;24.738;2024-03-08T10:25:25;21.63;;;10.50;;
9888;SDS011;4983;42.112;24.738;2024-03-08T10:27:51;18.05;;;10.98;;
9888;SDS011;4983;42.112;24.738;2024-03-08T10:30:16;19.45;;;10.85;;
9888;SDS011;4983;42.112;24.738;2024-03-08T10:32:46;16.02;;;9.20;;
9888;SDS011;4983;42.112;24.738;2024-03-08T10:35:12;16.77;;;9.32;;
9888;SDS011;4983;42.112;24.738;2024-03-08T10:40:06;16.42;;;9.15;;
9888;SDS011;4983;42.112;24.738;2024-03-08T10:42:41;17.70;;;10.82;;
9888;SDS011;4983;42.112;24.738;2024-03-08T10:48:01;16.70;;;10.15;;
9888;SDS011;4983;42.112;24.738;2024-03-08T10:50:35;19.40;;;9.32;;
9888;SDS011;4983;42.112;24.738;2024-03-08T10:53:03;18.55;;;10.50;;
9888;SDS011;4983;42.112;24.738;2024-03-08T10:55:31;17.30;;;9.88;;
9888;SDS011;4983;42.112;24.738;2024-03-08T10:57:59;18.10;;;9.68;;
9888;SDS011;4983;42.112;24.738;2024-03-08T11:00:25;21.48;;;10.32;;
9888;SDS011;4983;42.112;24.738;2024-03-08T11:02:54;24.73;;;10.65;;
9888;SDS011;4983;42.112;24.738;2024-03-08T11:05:38;17.00;;;9.98;;
9888;SDS011;4983;42.112;24.738;2024-03-08T11:08:15;14.57;;;9.00;;
9888;SDS011;4983;42.112;24.738;2024-03-08T11:10:52;23.85;;;9.48;;
9888;SDS011;4983;42.112;24.738;2024-03-08T11:16:48;18.52;;;9.60;;
9888;SDS011;4983;42.112;24.738;2024-03-08T11:18:54;20.67;;;9.18;;
9888;SDS011;4983;42.112;24.738;2024-03-08T11:21:25;16.73;;;9.55;;
9888;SDS011;4983;42.112;24.738;2024-03-08T11:24:01;18.15;;;9.80;;
9888;SDS011;4983;42.112;24.738;2024-03-08T11:26:30;17.00;;;9.52;;
9888;SDS011;4983;42.112;24.738;2024-03-08T11:29:31;16.98;;;8.40;;
9888;SDS011;4983;42.112;24.738;2024-03-08T11:34:43;15.63;;;8.57;;
9888;SDS011;4983;42.112;24.738;2024-03-08T11:37:14;17.35;;;7.90;;
9888;SDS011;4983;42.112;24.738;2024-03-08T11:39:50;14.68;;;7.60;;
9888;SDS011;4983;42.112;24.738;2024-03-08T11:42:17;15.75;;;7.32;;
9888;SDS011;4983;42.112;24.738;2024-03-08T11:44:44;19.15;;;7.80;;
9888;SDS011;4983;42.112;24.738;2024-03-08T11:47:11;13.52;;;8.07;;
9888;SDS011;4983;42.112;24.738;2024-03-08T11:49:37;8.95;;;6.13;;
9888;SDS011;4983;42.112;24.738;2024-03-08T11:52:04;7.88;;;6.50;;
9888;SDS011;4983;42.112;24.738;2024-03-08T11:54:30;10.20;;;6.80;;
9888;SDS011;4983;42.112;24.738;2024-03-08T11:56:59;14.10;;;7.07;;
9888;SDS011;4983;42.112;24.738;2024-03-08T11:59:28;20.65;;;8.13;;
9888;SDS011;4983;42.112;24.738;2024-03-08T12:02:02;14.95;;;8.30;;
9888;SDS011;4983;42.112;24.738;2024-03-08T12:04:29;15.68;;;7.38;;
9888;SDS011;4983;42.112;24.738;2024-03-08T12:06:56;10.10;;;6.43;;
9888;SDS011;4983;42.112;24.738;2024-03-08T12:09:26;17.25;;;7.45;;
9888;SDS011;4983;42.112;24.738;2024-03-08T12:11:52;29.48;;;7.45;;
9888;SDS011;4983;42.112;24.738;2024-03-08T12:14:17;10.38;;;6.93;;
9888;SDS011;4983;42.112;24.738;2024-03-08T12:16:43;20.85;;;7.57;;
9888;SDS011;4983;42.112;24.738;2024-03-08T12:19:09;8.38;;;5.22;;
9888;SDS011;4983;42.112;24.738;2024-03-08T12:21:35;8.15;;;5.85;;
9888;SDS011;4983;42.112;24.738;2024-03-08T12:24:08;14.25;;;7.70;;
9888;SDS011;4983;42.112;24.738;2024-03-08T12:26:38;10.85;;;6.38;;
9888;SDS011;4983;42.112;24.738;2024-03-08T12:29:20;11.52;;;6.45;;
9888;SDS011;4983;42.112;24.738;2024-03-08T12:31:53;9.27;;;5.35;;
9888;SDS011;4983;42.112;24.738;2024-03-08T12:34:19;42.95;;;8.98;;
9888;SDS011;4983;42.112;24.738;2024-03-08T12:36:46;12.50;;;5.95;;
9888;SDS011;4983;42.112;24.738;2024-03-08T12:39:13;8.82;;;5.22;;
9888;SDS011;4983;42.112;24.738;2024-03-08T12:41:41;15.38;;;7.95;;
9888;SDS011;4983;42.112;24.738;2024-03-08T12:44:07;12.07;;;7.75;;
9888;SDS011;4983;42.112;24.738;2024-03-08T12:46:36;9.13;;;6.15;;
9888;SDS011;4983;42.112;24.738;2024-03-08T12:49:08;10.80;;;6.95;;
9888;SDS011;4983;42.112;24.738;2024-03-08T12:51:37;11.27;;;7.70;;
9888;SDS011;4983;42.112;24.738;2024-03-08T12:54:04;12.55;;;7.32;;
9888;SDS011;4983;42.112;24.738;2024-03-08T12:56:32;11.57;;;7.22;;
9888;SDS011;4983;42.112;24.738;2024-03-08T12:58:59;18.92;;;7.82;;
9888;SDS011;4983;42.112;24.738;2024-03-08T13:01:26;24.17;;;8.77;;
9888;SDS011;4983;42.112;24.738;2024-03-08T13:03:52;28.20;;;8.57;;
9888;SDS011;4983;42.112;24.738;2024-03-08T13:06:21;13.00;;;7.53;;
9888;SDS011;4983;42.112;24.738;2024-03-08T13:11:18;10.13;;;5.38;;
9888;SDS011;4983;42.112;24.738;2024-03-08T13:13:44;12.98;;;8.15;;
9888;SDS011;4983;42.112;24.738;2024-03-08T13:16:10;10.88;;;7.40;;
9888;SDS011;4983;42.112;24.738;2024-03-08T13:18:39;18.75;;;7.85;;
9888;SDS011;4983;42.112;24.738;2024-03-08T13:21:07;24.88;;;8.70;;
9888;SDS011;4983;42.112;24.738;2024-03-08T13:23:34;25.40;;;8.98;;
9888;SDS011;4983;42.112;24.738;2024-03-08T13:26:05;12.70;;;6.88;;
9888;SDS011;4983;42.112;24.738;2024-03-08T13:28:34;19.63;;;11.77;;
9888;SDS011;4983;42.112;24.738;2024-03-08T13:31:06;11.50;;;8.73;;
9888;SDS011;4983;42.112;24.738;2024-03-08T13:33:32;12.85;;;6.60;;
9888;SDS011;4983;42.112;24.738;2024-03-08T13:36:01;12.27;;;8.48;;
9888;SDS011;4983;42.112;24.738;2024-03-08T13:38:28;9.90;;;6.30;;
9888;SDS011;4983;42.112;24.738;2024-03-08T13:40:53;11.85;;;6.90;;
9888;SDS011;4983;42.112;24.738;2024-03-08T13:43:19;26.92;;;8.18;;
9888;SDS011;4983;42.112;24.738;2024-03-08T13:45:44;13.93;;;6.97;;
9888;SDS011;4983;42.112;24.738;2024-03-08T13:48:11;13.63;;;7.03;;
9888;SDS011;4983;42.112;24.738;2024-03-08T13:50:38;61.55;;;13.98;;
9888;SDS011;4983;42.112;24.738;2024-03-08T13:53:04;9.20;;;6.13;;
9888;SDS011;4983;42.112;24.738;2024-03-08T13:55:30;9.95;;;6.68;;
9888;SDS011;4983;42.112;24.738;2024-03-08T13:57:56;10.88;;;6.07;;
9888;SDS011;4983;42.112;24.738;2024-03-08T14:00:25;17.48;;;7.28;;
9888;SDS011;4983;42.112;24.738;2024-03-08T14:02:53;14.00;;;6.47;;
9888;SDS011;4983;42.112;24.738;2024-03-08T14:05:19;24.30;;;7.65;;
9888;SDS011;4983;42.112;24.738;2024-03-08T14:07:45;9.55;;;6.35;;
9888;SDS011;4983;42.112;24.738;2024-03-08T14:10:14;18.40;;;6.40;;
9888;SDS011;4983;42.112;24.738;2024-03-08T14:12:40;10.88;;;6.03;;
9888;SDS011;4983;42.112;24.738;2024-03-08T14:15:05;7.78;;;5.05;;
9888;SDS011;4983;42.112;24.738;2024-03-08T14:17:32;11.13;;;4.95;;
9888;SDS011;4983;42.112;24.738;2024-03-08T14:19:58;21.23;;;6.93;;
9888;SDS011;4983;42.112;24.738;2024-03-08T14:22:24;25.88;;;8.32;;
9888;SDS011;4983;42.112;24.738;2024-03-08T14:24:49;12.23;;;6.38;;
9888;SDS011;4983;42.112;24.738;2024-03-08T14:27:16;10.90;;;6.13;;
9888;SDS011;4983;42.112;24.738;2024-03-08T14:29:43;16.35;;;6.50;;
9888;SDS011;4983;42.112;24.738;2024-03-08T14:32:09;9.25;;;5.30;;
9888;SDS011;4983;42.112;24.738;2024-03-08T14:34:35;10.50;;;7.20;;
9888;SDS011;4983;42.112;24.738;2024-03-08T14:37:01;15.60;;;7.60;;
9888;SDS011;4983;42.112;24.738;2024-03-08T14:39:30;38.28;;;10.15;;
9888;SDS011;4983;42.112;24.738;2024-03-08T14:41:58;6.80;;;5.28;;
9888;SDS011;4983;42.112;24.738;2024-03-08T14:44:25;16.80;;;7.28;;
9888;SDS011;4983;42.112;24.738;2024-03-08T14:46:54;18.90;;;7.22;;
9888;SDS011;4983;42.112;24.738;2024-03-08T14:49:23;25.52;;;7.63;;
9888;SDS011;4983;42.112;24.738;2024-03-08T14:51:48;10.95;;;5.97;;